createdAt,value
2019-02-22T00:01:24.809Z,99.30
2019-02-22T00:06:28.165Z,98.70
2019-02-22T00:11:31.188Z,97.50
2019-02-22T00:16:34.138Z,95.90
2019-02-22T00:21:37.456Z,93.20
2019-02-22T00:26:40.012Z,93.90
2019-02-22T00:31:43.488Z,93.30
2019-02-22T00:36:46.728Z,93.40
2019-02-22T00:41:49.720Z,93.00
2019-02-22T00:46:52.660Z,92.80
2019-02-22T00:51:55.792Z,92.70
2019-02-22T00:56:58.966Z,92.70
2019-02-22T01:02:01.650Z,92.40
2019-02-22T01:07:05.425Z,92.20
2019-02-22T01:12:08.316Z,92.00
2019-02-22T01:17:11.379Z,92.20
2019-02-22T01:22:14.683Z,92.20
2019-02-22T01:27:17.575Z,91.70
2019-02-22T01:32:20.857Z,91.40
2019-02-22T01:37:24.081Z,91.30
2019-02-22T01:42:27.562Z,91.10
2019-02-22T01:47:30.541Z,91.40
2019-02-22T01:52:33.925Z,91.30
2019-02-22T01:57:36.905Z,91.80
2019-02-22T02:02:39.724Z,91.80
2019-02-22T02:07:43.020Z,91.40
2019-02-22T02:12:46.262Z,91.40
2019-02-22T02:17:49.676Z,91.50
2019-02-22T02:22:52.554Z,91.30
2019-02-22T02:27:55.539Z,90.90
2019-02-22T02:32:58.874Z,91.10
2019-02-22T02:38:02.840Z,91.00
2019-02-22T02:43:05.987Z,90.40
2019-02-22T02:48:09.301Z,90.30
2019-02-22T02:53:12.248Z,90.60
2019-02-22T02:58:15.305Z,90.10
2019-02-22T03:03:18.455Z,90.00
2019-02-22T03:08:22.962Z,90.00
2019-02-22T03:13:25.852Z,90.10
2019-02-22T03:18:29.317Z,88.60
2019-02-22T03:23:32.774Z,88.50
2019-02-22T03:28:35.936Z,89.30
2019-02-22T03:33:38.838Z,85.60
2019-02-22T03:38:41.836Z,86.20
2019-02-22T03:43:44.787Z,87.50
2019-02-22T03:48:47.987Z,87.30
2019-02-22T03:53:57.251Z,84.20
2019-02-22T03:58:59.280Z,86.30
2019-02-22T04:04:02.140Z,84.20
2019-02-22T04:09:09.434Z,83.90
2019-02-22T04:14:12.092Z,82.20
2019-02-22T04:19:15.085Z,80.40
2019-02-22T04:24:18.202Z,81.50
2019-02-22T04:29:21.104Z,82.90
2019-02-22T04:34:24.293Z,82.10
2019-02-22T04:39:27.218Z,80.10
2019-02-22T04:44:30.455Z,81.30
2019-02-22T04:49:33.319Z,80.10
2019-02-22T04:54:36.184Z,80.90
2019-02-22T04:59:39.286Z,81.50
2019-02-22T05:04:42.181Z,81.80
2019-02-22T05:09:45.696Z,81.80
2019-02-22T05:14:49.142Z,81.80
2019-02-22T05:19:52.212Z,80.20
2019-02-22T05:24:55.125Z,81.20
2019-02-22T05:29:59.230Z,81.10
2019-02-22T05:35:02.173Z,79.50
2019-02-22T05:40:05.189Z,80.10
2019-02-22T05:45:08.102Z,79.30
2019-02-22T05:50:11.096Z,79.40
2019-02-22T05:55:13.967Z,79.60
2019-02-22T06:00:17.936Z,78.10
2019-02-22T06:05:22.552Z,77.00
2019-02-22T06:10:25.459Z,76.70
2019-02-22T06:15:28.280Z,76.40
2019-02-22T06:20:31.616Z,75.00
2019-02-22T06:25:34.840Z,73.90
2019-02-22T06:30:38.728Z,72.50
2019-02-22T06:35:41.552Z,70.90
2019-02-22T06:40:47.886Z,67.30
2019-02-22T06:45:49.657Z,67.50
2019-02-22T06:50:52.574Z,67.30
2019-02-22T06:55:57.760Z,66.50
2019-02-22T07:01:00.602Z,64.50
2019-02-22T07:06:05.668Z,65.70
2019-02-22T07:11:13.869Z,67.50
2019-02-22T07:16:16.769Z,63.70
2019-02-22T07:21:19.907Z,63.20
2019-02-22T07:26:23.235Z,61.70
2019-02-22T07:31:26.083Z,59.20
2019-02-22T07:36:29.888Z,60.50
2019-02-22T07:41:32.876Z,62.50
2019-02-22T07:46:35.780Z,58.90
2019-02-22T07:51:38.676Z,60.20
2019-02-22T07:56:41.855Z,58.70
2019-02-22T08:01:47.922Z,59.00
2019-02-22T08:06:49.912Z,58.10
2019-02-22T08:11:52.974Z,59.10
2019-02-22T08:16:56.264Z,57.50
2019-02-22T08:22:00.255Z,57.80
2019-02-22T08:27:03.636Z,56.80
2019-02-22T08:32:07.107Z,56.70
2019-02-22T08:42:14.507Z,55.10
2019-02-22T08:47:17.377Z,56.00
2019-02-22T08:52:20.393Z,55.10
2019-02-22T08:57:23.067Z,55.00
2019-02-22T09:02:26.343Z,55.10
2019-02-22T09:07:29.637Z,55.60
2019-02-22T09:12:32.501Z,54.90
2019-02-22T09:17:35.573Z,54.20
2019-02-22T09:22:39.524Z,54.10
2019-02-22T09:27:42.732Z,54.50
2019-02-22T09:32:45.619Z,53.70
2019-02-22T09:37:48.664Z,52.80
2019-02-22T09:42:52.152Z,51.70
2019-02-22T09:47:55.254Z,51.20
2019-02-22T09:52:58.346Z,51.50
2019-02-22T09:58:03.696Z,51.20
2019-02-22T10:03:06.821Z,52.00
2019-02-22T10:08:09.680Z,52.40
2019-02-22T10:13:13.273Z,52.00
2019-02-22T10:18:16.380Z,50.60
2019-02-22T10:23:19.232Z,50.20
2019-02-22T10:28:22.013Z,51.10
2019-02-22T10:33:35.958Z,50.20
2019-02-22T10:38:35.530Z,50.30
2019-02-22T10:43:40.192Z,48.80
2019-02-22T10:48:42.951Z,47.50
2019-02-22T10:58:48.540Z,47.90
2019-02-22T11:03:51.732Z,46.50
2019-02-22T11:08:54.532Z,48.00
2019-02-22T11:13:57.217Z,46.90
2019-02-22T11:19:00.077Z,47.20
2019-02-22T11:24:02.931Z,44.20
2019-02-22T11:29:05.618Z,44.10
2019-02-22T11:34:08.738Z,42.50
2019-02-22T11:39:11.899Z,45.40
2019-02-22T11:44:14.633Z,45.50
2019-02-22T11:49:18.264Z,45.10
2019-02-22T11:54:21.377Z,43.70
2019-02-22T11:59:24.467Z,43.20
2019-02-22T12:04:27.334Z,45.50
2019-02-22T12:09:30.179Z,44.10
2019-02-22T12:14:33.079Z,43.00
2019-02-22T12:19:35.988Z,43.00
2019-02-22T12:24:39.185Z,43.30
2019-02-22T12:29:42.154Z,44.00
2019-02-22T12:34:44.883Z,43.60
2019-02-22T12:45:02.293Z,41.60
2019-02-22T12:49:56.329Z,42.40
2019-02-22T12:54:59.708Z,42.00
2019-02-22T13:00:02.944Z,40.10
2019-02-22T13:10:09.471Z,39.20
2019-02-22T13:15:14.482Z,38.70
2019-02-22T13:20:17.201Z,39.10
2019-02-22T13:25:20.361Z,39.50
2019-02-22T13:30:23.888Z,39.90
2019-02-22T13:35:26.642Z,39.30
2019-02-22T13:40:29.417Z,38.50
2019-02-22T13:45:32.248Z,40.50
2019-02-22T13:50:35.544Z,38.80
2019-02-22T13:55:38.236Z,38.90
2019-02-22T14:00:41.090Z,40.10
2019-02-22T14:05:44.451Z,40.30
2019-02-22T14:10:47.099Z,42.10
2019-02-22T14:15:50.606Z,42.20
2019-02-22T14:20:53.684Z,42.60
2019-02-22T14:25:57.165Z,42.60
2019-02-22T14:31:00.161Z,43.00
2019-02-22T14:36:03.047Z,42.90
2019-02-22T14:51:12.051Z,42.30
2019-02-22T14:56:15.824Z,42.40
2019-02-22T15:01:19.569Z,42.80
2019-02-22T15:06:22.788Z,43.10
2019-02-22T15:11:26.783Z,42.60
2019-02-22T15:16:51.907Z,42.10
2019-02-22T15:21:55.174Z,42.90
2019-02-22T15:26:59.228Z,43.30
2019-02-22T15:32:03.388Z,43.50
2019-02-22T15:37:07.328Z,43.50
2019-02-22T15:42:12.742Z,43.70
2019-02-22T15:47:15.616Z,43.60
2019-02-22T15:52:18.796Z,44.90
2019-02-22T15:57:21.767Z,44.80
2019-02-22T16:02:24.865Z,44.70
2019-02-22T16:07:27.763Z,42.90
2019-02-22T16:12:30.941Z,43.90
2019-02-22T16:17:34.585Z,45.10
2019-02-22T16:22:37.501Z,45.60
2019-02-22T16:27:41.784Z,46.50
2019-02-22T16:32:46.515Z,47.50
2019-02-22T16:37:49.496Z,51.90
2019-02-22T16:42:52.973Z,49.40
2019-02-22T16:52:58.979Z,49.10
2019-02-22T16:58:02.051Z,49.70
2019-02-22T17:03:05.641Z,50.10
2019-02-22T17:08:08.499Z,50.60
2019-02-22T17:13:11.684Z,50.90
2019-02-22T17:18:15.116Z,51.10
2019-02-22T17:23:18.187Z,51.50
2019-02-22T17:33:24.645Z,52.10
2019-02-22T17:38:47.037Z,52.50
2019-02-22T17:43:49.889Z,53.70
2019-02-22T17:48:53.165Z,54.00
2019-02-22T17:53:56.372Z,54.70
2019-02-22T17:58:59.144Z,53.60
2019-02-22T18:04:02.352Z,55.10
2019-02-22T18:09:05.580Z,55.40
2019-02-22T18:14:09.218Z,55.80
2019-02-22T18:19:11.864Z,56.00
2019-02-22T18:24:14.728Z,56.20
2019-02-22T18:29:18.476Z,56.30
2019-02-22T18:34:21.541Z,56.30
2019-02-22T18:39:25.243Z,56.30
2019-02-22T18:44:28.201Z,56.30
2019-02-22T18:49:31.951Z,56.00
2019-02-22T18:54:34.839Z,56.10
2019-02-22T19:10:33.376Z,54.90
2019-02-22T19:15:36.701Z,55.40
2019-02-22T19:20:40.131Z,54.60
2019-02-22T19:25:43.832Z,54.00
2019-02-22T19:30:46.682Z,54.20
2019-02-22T19:35:49.531Z,54.40
2019-02-22T19:40:52.544Z,54.80
2019-02-22T19:46:02.564Z,54.90
2019-02-22T20:06:16.372Z,56.30
2019-02-22T20:11:19.280Z,55.50
2019-02-22T20:16:22.414Z,55.90
2019-02-22T20:21:47.813Z,55.70
2019-02-22T20:26:55.420Z,56.10
2019-02-22T20:31:58.295Z,56.60
2019-02-22T20:37:01.191Z,56.60
2019-02-22T20:42:04.129Z,56.50
2019-02-22T20:47:07.301Z,56.50
2019-02-22T20:52:10.193Z,56.90
2019-02-22T20:57:13.048Z,57.50
2019-02-22T21:02:16.340Z,57.70
2019-02-22T21:07:19.269Z,57.60
2019-02-22T21:12:22.190Z,57.80
2019-02-22T21:17:25.379Z,58.30
2019-02-22T21:22:29.106Z,58.40
2019-02-22T21:27:32.171Z,58.70
2019-02-22T21:32:35.264Z,59.00
2019-02-22T21:37:39.410Z,59.30
2019-02-22T21:42:42.653Z,59.20
2019-02-22T21:47:54.115Z,59.50
2019-02-22T21:52:50.922Z,59.90
2019-02-22T21:57:53.559Z,59.90
2019-02-22T22:02:56.821Z,59.80
2019-02-22T22:07:59.802Z,60.30
2019-02-22T22:13:02.691Z,59.90
2019-02-22T22:18:05.353Z,60.40
2019-02-22T22:23:08.167Z,61.10
2019-02-22T22:28:11.345Z,61.30
2019-02-22T22:33:16.066Z,61.40
2019-02-22T22:38:18.832Z,61.60
2019-02-22T22:43:22.206Z,61.50
2019-02-22T22:48:25.097Z,61.80
2019-02-22T22:53:28.517Z,61.90
2019-02-22T22:58:31.398Z,62.00
2019-02-22T23:03:35.010Z,62.30
2019-02-22T23:08:37.846Z,62.20
2019-02-22T23:13:41.071Z,62.90
2019-02-22T23:18:43.876Z,63.50
2019-02-22T23:23:47.238Z,64.00
2019-02-22T23:28:50.103Z,64.30
2019-02-22T23:33:54.523Z,64.50
2019-02-22T23:38:58.673Z,64.70
2019-02-22T23:44:01.333Z,64.60
2019-02-22T23:49:12.824Z,64.20
2019-02-22T23:54:09.183Z,64.60
2019-02-22T23:59:12.047Z,65.10
